FredonyerEastRWIS Atmospheric Data: 10/12/2017 Summary  Detailed Graphs  Station List

  Temperature     Wind Precipitation Visibility
Timestamp Air Wet
Bulb
Dew-
point
24-hr
Max
24-hr
Min
Relative
Humidity
Atmospheric
Pressure
Avg
Speed
Avg
Dir
Spot
Speed
Spot
Dir
Max
Speed
Max
Dir
  Rate Situation Start End 1 hr 3 hr 6 hr 12 hr 24 hr   Situation
Date Time °F °F °F °F °F % in Hg mph ° mph ° mph ° Y/N in/hr text Date Time Date Time in in in in in mi text
10/12/2017 12:08 AM 28.22 23.72 4.10 58.64 28.22 35.0 Not Reported 0.00 W 0.00 W 2.24 NW No x No Precipitation 10/11/2017 11:34 PM 10/11/2017 11:36 PM x x x x x Not Reported Not Reported
10/12/2017 12:24 AM 27.14 22.82 3.92 58.64 27.14 36.0 Not Reported 1.79 W 1.34 NW 2.24 W No x No Precipitation 10/11/2017 11:34 PM 10/11/2017 11:36 PM x x x x x Not Reported Not Reported
10/12/2017 12:39 AM 25.52 21.38 3.38 58.64 25.52 38.0 Not Reported 0.67 S 0.89 NW 2.24 NW No x No Precipitation 10/11/2017 11:34 PM 10/11/2017 11:36 PM x x x x x Not Reported Not Reported
10/12/2017 12:54 AM 24.62 20.66 3.38 58.64 24.44 39.0 Not Reported 0.00 SW 0.00 SW 0.00 x No x No Precipitation 10/11/2017 11:34 PM 10/11/2017 11:36 PM x x x x x Not Reported Not Reported
10/12/2017 01:08 AM 23.90 20.12 3.56 58.64 23.90 40.0 Not Reported 0.00 NW 0.00 NW 0.89 NW No x No Precipitation 10/11/2017 11:34 PM 10/11/2017 11:36 PM x x x x x Not Reported Not Reported
10/12/2017 01:24 AM 23.54 19.94 3.92 58.64 23.54 42.0 Not Reported 0.67 SW 1.57 S 1.79 SW No x No Precipitation 10/11/2017 11:34 PM 10/11/2017 11:36 PM x x x x x Not Reported Not Reported
10/12/2017 01:38 AM 23.54 19.76 4.28 58.64 23.36 43.0 Not Reported 0.00 S 0.00 S 0.67 S No x No Precipitation 10/11/2017 11:34 PM 10/11/2017 11:36 PM x x x x x Not Reported Not Reported
10/12/2017 01:53 AM 23.00 19.58 4.46 58.64 22.82 44.0 Not Reported 0.22 NW 1.57 S 3.13 NW No x No Precipitation 10/11/2017 11:34 PM 10/11/2017 11:36 PM x x x x x Not Reported Not Reported
10/12/2017 02:10 AM 22.82 19.22 4.64 58.64 22.64 45.0 Not Reported 0.00 SW 0.22 W 1.12 SW No x No Precipitation 10/11/2017 11:34 PM 10/11/2017 11:36 PM x x x x x Not Reported Not Reported
10/12/2017 02:24 AM 22.64 19.22 5.18 58.64 22.46 46.0 Not Reported 0.00 W 0.00 W 1.57 W No x No Precipitation 10/11/2017 11:34 PM 10/11/2017 11:36 PM x x x x x Not Reported Not Reported
10/12/2017 02:39 AM 22.28 18.86 5.18 58.64 22.28 47.0 Not Reported 0.00 W 0.00 W 0.00 x No x No Precipitation 10/11/2017 11:34 PM 10/11/2017 11:36 PM x x x x x Not Reported Not Reported
10/12/2017 02:54 AM 22.28 18.68 5.54 58.64 21.92 48.0 Not Reported 0.00 SW 0.00 SW 0.22 W No x No Precipitation 10/11/2017 11:34 PM 10/11/2017 11:36 PM x x x x x Not Reported Not Reported
10/12/2017 03:09 AM 21.74 18.50 5.36 58.64 21.74 48.0 Not Reported 0.00 SW 0.00 SW 0.00 x No x No Precipitation 10/11/2017 11:34 PM 10/11/2017 11:36 PM x x x x x Not Reported Not Reported
10/12/2017 03:23 AM 21.56 18.32 5.72 58.64 21.38 49.0 Not Reported 0.22 N 0.00 N 1.79 N No x No Precipitation 10/11/2017 11:34 PM 10/11/2017 11:36 PM x x x x x Not Reported Not Reported
10/12/2017 03:39 AM 21.38 18.32 5.90 58.64 21.38 50.0 Not Reported 0.22 S 0.00 S 2.01 NW No x No Precipitation 10/11/2017 11:34 PM 10/11/2017 11:36 PM x x x x x Not Reported Not Reported
10/12/2017 03:54 AM 20.66 17.78 5.72 58.64 20.66 51.0 Not Reported 0.00 S 0.00 S 1.34 S No x No Precipitation 10/11/2017 11:34 PM 10/11/2017 11:36 PM x x x x x Not Reported Not Reported
10/12/2017 04:08 AM 20.48 17.60 5.90 58.64 20.30 52.0 Not Reported 0.22 N 0.00 NW 1.57 NW No x No Precipitation 10/11/2017 11:34 PM 10/11/2017 11:36 PM x x x x x Not Reported Not Reported
10/12/2017 04:24 AM 20.12 17.24 5.90 58.64 20.12 53.0 Not Reported 0.00 NW 0.00 NW 0.22 NW No x No Precipitation 10/11/2017 11:34 PM 10/11/2017 11:36 PM x x x x x Not Reported Not Reported
10/12/2017 04:40 AM 19.76 17.06 6.26 58.64 19.76 54.0 Not Reported 0.00 NE 0.00 N 1.57 NW No x No Precipitation 10/11/2017 11:34 PM 10/11/2017 11:36 PM x x x x x Not Reported Not Reported
10/12/2017 04:53 AM 19.58 17.06 6.44 58.64 19.58 55.0 Not Reported 1.12 NW 1.57 NW 1.57 NW No x No Precipitation 10/11/2017 11:34 PM 10/11/2017 11:36 PM x x x x x Not Reported Not Reported
10/12/2017 05:09 AM 19.58 16.88 6.62 58.64 19.58 56.0 Not Reported 0.00 SE 0.00 SE 1.34 SE No x No Precipitation 10/11/2017 11:34 PM 10/11/2017 11:36 PM x x x x x Not Reported Not Reported
10/12/2017 05:23 AM 19.22 16.70 6.80 58.64 19.22 57.0 Not Reported 0.00 S 0.00 S 1.57 S No x No Precipitation 10/11/2017 11:34 PM 10/11/2017 11:36 PM x x x x x Not Reported Not Reported
10/12/2017 05:39 AM 18.86 16.34 6.62 58.64 18.86 58.0 Not Reported 0.00 N 0.00 N 2.01 N No x No Precipitation 10/11/2017 11:34 PM 10/11/2017 11:36 PM x x x x x Not Reported Not Reported
10/12/2017 05:54 AM 19.04 16.52 7.16 58.64 18.68 59.0 Not Reported 0.22 S 1.57 NE 2.68 S No x No Precipitation 10/11/2017 11:34 PM 10/11/2017 11:36 PM x x x x x Not Reported Not Reported
10/12/2017 06:08 AM 18.86 16.52 7.16 58.64 18.68 59.0 Not Reported 0.00 NE 0.00 N 0.00 x No x No Precipitation 10/11/2017 11:34 PM 10/11/2017 11:36 PM x x x x x Not Reported Not Reported
10/12/2017 06:24 AM 18.68 16.34 7.34 58.64 18.50 60.0 Not Reported 0.45 S 0.89 W 3.13 S No x No Precipitation 10/11/2017 11:34 PM 10/11/2017 11:36 PM x x x x x Not Reported Not Reported
10/12/2017 06:38 AM 18.50 16.16 7.34 58.64 18.50 61.0 Not Reported 0.00 W 0.00 W 1.79 N No x No Precipitation 10/11/2017 11:34 PM 10/11/2017 11:36 PM x x x x x Not Reported Not Reported
10/12/2017 06:53 AM 18.32 15.98 7.34 58.64 18.14 61.0 Not Reported 0.00 S 0.00 S 1.12 NW No x No Precipitation 10/11/2017 11:34 PM 10/11/2017 11:36 PM x x x x x Not Reported Not Reported
10/12/2017 07:08 AM 17.78 15.62 7.34 58.64 17.60 63.0 Not Reported 1.34 N 1.12 N 1.57 N No x No Precipitation 10/11/2017 11:34 PM 10/11/2017 11:36 PM x x x x x Not Reported Not Reported
10/12/2017 07:23 AM 17.78 15.62 7.52 58.64 17.60 63.0 Not Reported 0.00 N 0.00 N 0.22 N No x No Precipitation 10/11/2017 11:34 PM 10/11/2017 11:36 PM x x x x x Not Reported Not Reported
10/12/2017 07:38 AM 17.78 15.62 7.88 58.64 17.60 64.0 Not Reported 0.00 N 0.00 N 1.12 NW No x No Precipitation 10/11/2017 11:34 PM 10/11/2017 11:36 PM x x x x x Not Reported Not Reported
10/12/2017 07:54 AM 18.32 16.16 8.42 58.64 17.60 64.0 Not Reported 0.00 N 0.00 N 1.12 N No x No Precipitation 10/11/2017 11:34 PM 10/11/2017 11:36 PM x x x x x Not Reported Not Reported
10/12/2017 08:09 AM 19.58 17.42 9.86 58.64 17.60 65.0 Not Reported 0.00 E 0.00 E 0.00 x No x No Precipitation 10/11/2017 11:34 PM 10/11/2017 11:36 PM x x x x x Not Reported Not Reported
10/12/2017 08:24 AM 21.02 18.50 10.58 58.64 17.60 63.0 Not Reported 0.00 E 0.00 E 0.00 x No x No Precipitation 10/11/2017 11:34 PM 10/11/2017 11:36 PM x x x x x Not Reported Not Reported
10/12/2017 08:39 AM 23.00 20.66 11.66 58.64 17.60 61.0 Not Reported 0.45 SE 0.22 SE 1.12 SE No x No Precipitation 10/11/2017 11:34 PM 10/11/2017 11:36 PM x x x x x Not Reported Not Reported
10/12/2017 08:55 AM 26.42 23.36 12.92 58.64 17.60 55.0 Not Reported 1.34 S 1.34 S 2.01 S No x No Precipitation 10/11/2017 11:34 PM 10/11/2017 11:36 PM x x x x x Not Reported Not Reported
10/12/2017 09:08 AM 31.10 26.78 14.18 58.64 17.60 48.0 Not Reported 1.12 E 1.34 E 2.24 E No x No Precipitation 10/11/2017 11:34 PM 10/11/2017 11:36 PM x x x x x Not Reported Not Reported
10/12/2017 09:24 AM 35.60 30.38 14.72 58.64 17.60 41.0 Not Reported 1.34 E 2.24 E 6.26 NE No x No Precipitation 10/11/2017 11:34 PM 10/11/2017 11:36 PM x x x x x Not Reported Not Reported
10/12/2017 09:38 AM 37.76 31.64 13.82 58.64 17.60 37.0 Not Reported 0.89 E 0.22 SE 4.03 E No x No Precipitation 10/11/2017 11:34 PM 10/11/2017 11:36 PM x x x x x Not Reported Not Reported
10/12/2017 09:53 AM 39.38 32.90 13.64 58.64 17.60 34.0 Not Reported 2.24 SE 3.58 SE 6.26 SE No x No Precipitation 10/11/2017 11:34 PM 10/11/2017 11:36 PM x x x x x Not Reported Not Reported
10/12/2017 10:08 AM 39.92 33.26 13.28 58.64 17.60 33.0 Not Reported 3.13 SE 1.34 SE 7.61 S No x No Precipitation 10/11/2017 11:34 PM 10/11/2017 11:36 PM x x x x x Not Reported Not Reported
10/12/2017 10:23 AM 41.72 34.70 13.64 58.64 17.60 31.0 Not Reported 0.67 NE 0.00 W 9.40 SE No x No Precipitation 10/12/2017 10:18 AM 10/12/2017 10:19 AM x x x x x Not Reported Not Reported
10/12/2017 10:38 AM 42.08 34.88 12.92 58.64 17.60 29.0 Not Reported 2.46 SE 6.49 S 6.49 E No x No Precipitation 10/12/2017 10:18 AM 10/12/2017 10:19 AM x x x x x Not Reported Not Reported
10/12/2017 10:54 AM 44.24 36.50 13.64 58.64 17.60 28.0 Not Reported 4.47 SE 1.57 SW 6.93 SE No x No Precipitation 10/12/2017 10:42 AM 10/12/2017 10:43 AM x x x x x Not Reported Not Reported
10/12/2017 11:10 AM 45.14 37.04 13.28 58.64 17.60 27.0 Not Reported 1.79 E 3.80 SE 8.28 N No x No Precipitation 10/12/2017 10:55 AM 10/12/2017 10:56 AM x x x x x Not Reported Not Reported
10/12/2017 11:23 AM 44.96 37.04 12.38 58.64 17.60 26.0 Not Reported 2.01 NE 3.58 S 9.17 S No x No Precipitation 10/12/2017 11:17 AM 10/12/2017 11:19 AM x x x x x Not Reported Not Reported
10/12/2017 11:39 AM 46.40 38.12 12.74 58.64 17.60 25.0 Not Reported 2.24 NE 4.47 NW 7.61 SE No x No Precipitation 10/12/2017 11:17 AM 10/12/2017 11:19 AM x x x x x Not Reported Not Reported
10/12/2017 11:54 AM 47.12 38.66 12.38 58.64 17.60 24.0 Not Reported 2.91 NE 4.25 SE 8.28 E No x No Precipitation 10/12/2017 11:43 AM 10/12/2017 11:44 AM x x x x x Not Reported Not Reported
10/12/2017 12:09 PM 48.20 39.38 12.74 58.64 17.60 23.0 Not Reported 1.79 E 2.24 SE 6.93 SE No x No Precipitation 10/12/2017 12:01 PM 10/12/2017 12:02 PM x x x x x Not Reported Not Reported
10/12/2017 12:23 PM 48.56 39.92 12.92 58.64 17.60 23.0 Not Reported 3.36 NE 3.13 E 8.95 S No x No Precipitation 10/12/2017 12:18 PM 10/12/2017 12:19 PM x x x x x Not Reported Not Reported
10/12/2017 12:39 PM 49.46 40.28 12.92 58.64 17.60 22.0 Not Reported 3.80 SE 4.70 SE 7.83 S No x No Precipitation 10/12/2017 12:32 PM 10/12/2017 12:33 PM x x x x x Not Reported Not Reported
10/12/2017 12:55 PM 50.54 41.18 13.10 58.64 17.60 22.0 Not Reported 2.46 E 4.70 E 7.38 S No x No Precipitation 10/12/2017 12:47 PM 10/12/2017 12:48 PM x x x x x Not Reported Not Reported
10/12/2017 01:10 PM 50.54 41.36 12.38 58.64 17.60 21.0 Not Reported 2.68 E 0.89 E 7.83 S No x No Precipitation 10/12/2017 01:03 PM 10/12/2017 01:04 PM x x x x x Not Reported Not Reported
10/12/2017 01:23 PM 51.62 41.90 12.20 58.64 17.60 20.0 Not Reported 4.70 SE 6.49 SE 9.84 SE No x No Precipitation 10/12/2017 01:16 PM 10/12/2017 01:17 PM x x x x x Not Reported Not Reported
10/12/2017 01:38 PM 53.06 43.16 12.38 58.64 17.60 19.0 Not Reported 2.01 NE 1.57 N 5.59 NE No x No Precipitation 10/12/2017 01:23 PM 10/12/2017 01:24 PM x x x x x Not Reported Not Reported
10/12/2017 01:53 PM 52.70 42.80 11.66 58.64 17.60 19.0 Not Reported 3.58 E 5.59 E 7.16 SE No x No Precipitation 10/12/2017 01:39 PM 10/12/2017 01:44 PM x x x x x Not Reported Not Reported
10/12/2017 02:09 PM 54.32 44.24 11.66 58.64 17.60 17.0 Not Reported 1.34 W 0.00 E 6.49 SE No x No Precipitation 10/12/2017 01:39 PM 10/12/2017 01:44 PM x x x x x Not Reported Not Reported
10/12/2017 02:24 PM 54.68 44.60 10.04 58.64 17.60 16.0 Not Reported 3.36 SE 2.68 NE 8.05 SE No x No Precipitation 10/12/2017 01:39 PM 10/12/2017 01:44 PM x x x x x Not Reported Not Reported
10/12/2017 02:38 PM 55.40 45.14 9.50 58.64 17.60 15.0 Not Reported 4.25 E 4.47 E 8.50 S No x No Precipitation 10/12/2017 01:39 PM 10/12/2017 01:44 PM x x x x x Not Reported Not Reported
10/12/2017 02:53 PM 55.58 45.32 8.96 57.92 17.60 15.0 Not Reported 3.13 E 2.68 SE 8.50 E No x No Precipitation 10/12/2017 02:41 PM 10/12/2017 02:42 PM x x x x x Not Reported Not Reported
10/12/2017 03:09 PM 56.66 46.04 9.14 57.92 17.60 14.0 Not Reported 2.24 E 3.80 N 6.04 SE No x No Precipitation 10/12/2017 02:41 PM 10/12/2017 02:42 PM x x x x x Not Reported Not Reported
10/12/2017 03:23 PM 57.56 46.76 9.86 57.92 17.60 14.0 Not Reported 2.68 E 2.91 SE 7.61 SE No x No Precipitation 10/12/2017 02:41 PM 10/12/2017 02:42 PM x x x x x Not Reported Not Reported
10/12/2017 03:38 PM 57.56 46.76 9.86 57.92 17.60 14.0 Not Reported 3.58 S 3.58 NE 6.26 S No x No Precipitation 10/12/2017 02:41 PM 10/12/2017 02:42 PM x x x x x Not Reported Not Reported
10/12/2017 03:54 PM 58.10 47.12 10.40 58.10 17.60 14.0 Not Reported 3.58 E 5.14 E 7.38 NE No x No Precipitation 10/12/2017 02:41 PM 10/12/2017 02:42 PM x x x x x Not Reported Not Reported
10/12/2017 04:08 PM 58.10 47.12 10.22 58.28 17.60 14.0 Not Reported 3.80 SE 0.00 E 5.59 S No x No Precipitation 10/12/2017 04:07 PM 10/12/2017 04:08 PM x x x x x Not Reported Not Reported
10/12/2017 04:23 PM 57.38 46.58 9.68 58.28 17.60 14.0 Not Reported 3.58 SE 3.13 SE 5.59 S No x No Precipitation 10/12/2017 04:07 PM 10/12/2017 04:08 PM x x x x x Not Reported Not Reported
10/12/2017 04:38 PM 58.10 47.12 10.22 58.28 17.60 14.0 Not Reported 1.34 SE 1.34 S 6.49 S No x No Precipitation 10/12/2017 04:07 PM 10/12/2017 04:08 PM x x x x x Not Reported Not Reported
10/12/2017 04:53 PM 57.56 46.76 9.32 58.28 17.60 14.0 Not Reported 2.24 W 2.68 SE 4.70 S No x No Precipitation 10/12/2017 04:07 PM 10/12/2017 04:08 PM x x x x x Not Reported Not Reported
10/12/2017 05:09 PM 56.66 46.04 8.96 58.28 17.60 14.0 Not Reported 3.36 N 2.46 N 6.93 N No x No Precipitation 10/12/2017 04:07 PM 10/12/2017 04:08 PM x x x x x Not Reported Not Reported
10/12/2017 05:24 PM 54.14 44.06 8.06 58.28 17.60 15.0 Not Reported 2.01 N 1.34 NW 5.59 NE No x No Precipitation 10/12/2017 04:07 PM 10/12/2017 04:08 PM x x x x x Not Reported Not Reported
10/12/2017 05:38 PM 48.38 39.92 6.62 58.28 17.60 17.0 Not Reported 1.34 N 1.79 NW 3.13 NE No x No Precipitation 10/12/2017 04:07 PM 10/12/2017 04:08 PM x x x x x Not Reported Not Reported
10/12/2017 05:53 PM 45.50 37.58 6.44 58.28 17.60 19.0 Not Reported 2.46 NW 2.01 NW 3.58 N No x No Precipitation 10/12/2017 04:07 PM 10/12/2017 04:08 PM x x x x x Not Reported Not Reported
10/12/2017 06:09 PM 43.52 35.96 6.80 58.28 17.60 21.0 Not Reported 1.34 W 1.34 W 2.24 NW No x No Precipitation 10/12/2017 04:07 PM 10/12/2017 04:08 PM x x x x x Not Reported Not Reported
10/12/2017 06:25 PM 41.90 34.52 6.80 58.28 17.60 23.0 Not Reported 0.67 NW 1.57 NW 2.46 NW No x No Precipitation 10/12/2017 06:20 PM 10/12/2017 06:22 PM x x x x x Not Reported Not Reported
10/12/2017 06:39 PM 40.10 33.26 6.44 58.28 17.60 24.0 Not Reported 0.00 NW 0.00 S 2.91 NW No x No Precipitation 10/12/2017 06:25 PM 10/12/2017 06:27 PM x x x x x Not Reported Not Reported
10/12/2017 06:53 PM 38.66 32.00 6.26 58.28 17.60 25.0 Not Reported 0.45 NW 1.12 NW 1.34 NW No x No Precipitation 10/12/2017 06:25 PM 10/12/2017 06:27 PM x x x x x Not Reported Not Reported
10/12/2017 07:09 PM 36.86 30.74 6.08 58.28 17.60 27.0 Not Reported 0.67 W 1.12 W 1.34 W No x No Precipitation 10/12/2017 06:25 PM 10/12/2017 06:27 PM x x x x x Not Reported Not Reported
10/12/2017 07:24 PM 35.42 29.66 5.54 58.28 17.60 27.0 Not Reported 0.00 NW 0.00 W 0.89 NW No x No Precipitation 10/12/2017 06:25 PM 10/12/2017 06:27 PM x x x x x Not Reported Not Reported
10/12/2017 07:38 PM 34.52 28.76 5.54 58.28 17.60 29.0 Not Reported 0.00 NW 0.22 NW 1.12 NW No x No Precipitation 10/12/2017 06:25 PM 10/12/2017 06:27 PM x x x x x Not Reported Not Reported
10/12/2017 07:54 PM 33.44 27.86 5.18 58.28 17.60 29.0 Not Reported 0.67 NW 0.67 NW 1.12 NW No x No Precipitation 10/12/2017 06:25 PM 10/12/2017 06:27 PM x x x x x Not Reported Not Reported
10/12/2017 08:09 PM 32.90 27.50 5.54 58.28 17.60 30.0 Not Reported 0.00 NW 0.00 NW 0.00 x No x No Precipitation 10/12/2017 06:25 PM 10/12/2017 06:27 PM x x x x x Not Reported Not Reported
10/12/2017 08:23 PM 32.18 26.96 5.54 58.28 17.60 31.0 Not Reported 0.22 NW 0.00 NW 0.67 NW No x No Precipitation 10/12/2017 06:25 PM 10/12/2017 06:27 PM x x x x x Not Reported Not Reported
10/12/2017 08:39 PM 31.82 26.78 5.72 58.28 17.60 32.0 Not Reported 1.34 NW 1.79 NW 3.58 NW No x No Precipitation 10/12/2017 06:25 PM 10/12/2017 06:27 PM x x x x x Not Reported Not Reported
10/12/2017 08:53 PM 31.82 26.60 5.54 58.28 17.60 32.0 Not Reported 0.00 SE 0.00 SE 1.34 NW No x No Precipitation 10/12/2017 06:25 PM 10/12/2017 06:27 PM x x x x x Not Reported Not Reported
10/12/2017 09:08 PM 31.10 26.06 5.18 58.28 17.60 32.0 Not Reported 1.12 NW 0.00 NW 1.79 NW No x No Precipitation 10/12/2017 06:25 PM 10/12/2017 06:27 PM x x x x x Not Reported Not Reported
10/12/2017 09:24 PM 30.74 25.70 5.36 58.28 17.60 33.0 Not Reported 0.00 SE 0.00 NE 1.57 SW No x No Precipitation 10/12/2017 06:25 PM 10/12/2017 06:27 PM x x x x x Not Reported Not Reported
10/12/2017 09:38 PM 30.56 25.52 5.54 58.28 17.60 34.0 Not Reported 0.22 NW 0.00 NW 2.24 N No x No Precipitation 10/12/2017 06:25 PM 10/12/2017 06:27 PM x x x x x Not Reported Not Reported
10/12/2017 09:54 PM 29.84 25.16 5.36 58.28 17.60 34.0 Not Reported 0.00 N 0.00 N 0.22 N No x No Precipitation 10/12/2017 06:25 PM 10/12/2017 06:27 PM x x x x x Not Reported Not Reported
10/12/2017 10:09 PM 29.48 24.98 5.36 58.28 17.60 35.0 Not Reported 0.00 NW 0.00 NW 2.01 N No x No Precipitation 10/12/2017 06:25 PM 10/12/2017 06:27 PM x x x x x Not Reported Not Reported
10/12/2017 10:23 PM 29.30 24.62 5.36 58.28 17.60 35.0 Not Reported 0.00 NW 0.00 NW 0.67 NW No x No Precipitation 10/12/2017 06:25 PM 10/12/2017 06:27 PM x x x x x Not Reported Not Reported
10/12/2017 10:38 PM 28.58 24.08 5.36 58.28 17.60 36.0 Not Reported 0.00 SW 0.22 N 0.67 SW No x No Precipitation 10/12/2017 06:25 PM 10/12/2017 06:27 PM x x x x x Not Reported Not Reported
10/12/2017 10:53 PM 28.40 23.90 5.54 58.28 17.60 37.0 Not Reported 0.00 N 0.00 N 0.67 N No x No Precipitation 10/12/2017 06:25 PM 10/12/2017 06:27 PM x x x x x Not Reported Not Reported
10/12/2017 11:08 PM 28.04 23.54 5.54 58.28 17.60 37.0 Not Reported 0.22 NW 1.12 NW 1.57 NW No x No Precipitation 10/12/2017 06:25 PM 10/12/2017 06:27 PM x x x x x Not Reported Not Reported
10/12/2017 11:24 PM 27.68 23.36 5.54 58.28 17.60 38.0 Not Reported 0.00 NW 0.00 NW 0.00 x No x No Precipitation 10/12/2017 06:25 PM 10/12/2017 06:27 PM x x x x x Not Reported Not Reported
10/12/2017 11:39 PM 27.68 23.36 6.08 58.28 17.60 39.0 Not Reported 0.00 N 0.00 N 1.79 NW No x No Precipitation 10/12/2017 06:25 PM 10/12/2017 06:27 PM x x x x x Not Reported Not Reported
10/12/2017 11:53 PM 27.50 23.18 5.90 58.28 17.60 39.0 Not Reported 0.00 N 0.00 N 0.00 x No x No Precipitation 10/12/2017 06:25 PM 10/12/2017 06:27 PM x x x x x Not Reported Not Reported